Terminal Aerodrome Forecast
Issued by NWS

Home | Current Version | Previous Version | Text Only | Print | Product List | Glossary On
Versions: 1 2 3 4 5 6 7 8 9 10 11 12 13 14 15
000
FTUS44 KOUN 191135
TAFWWR
TAF
KWWR 191135Z 1912/2012 17012KT P6SM SCT008
      TEMPO 1912/1916 BKN008
     FM191600 19010KT P6SM BKN030
     FM191900 26008KT P6SM FEW040
      TEMPO 2009/2012 4SM BR BKN010=

USA.gov is the U.S. government's official web portal to all federal, state and local government web resources and services.